Home > Products > Valid Products > TAF

000
FTUS41 KPBZ 281441 AAA
TAFPIT
TAF AMD
KPIT 281441Z 2815/2918 08005KT P6SM SKC=



000
FTUS41 KPBZ 281441 AAA
TAFPIT
TAF AMD
KPIT 281441Z 2815/2918 08005KT P6SM SKC=



000
FTUS41 KPBZ 281158 CCA
TAFDUJ
TAF COR
KDUJ 281158Z 2812/2912 00000KT 3SM BR SKC
      TEMPO 2812/2813 2SM BR
     FM281300 09005KT P6SM SCT050=



000
FTUS41 KPBZ 281158 CCA
TAFAGC
TAF COR
KAGC 281158Z 2812/2912 00000KT 3SM BR SKC
     FM281300 09005KT P6SM SCT040=



000
FTUS41 KPBZ 281158 CCA
TAFAGC
TAF COR
KAGC 281158Z 2812/2912 00000KT 3SM BR SKC
     FM281300 09005KT P6SM SCT040=



000
FTUS41 KPBZ 281158 CCA
TAFDUJ
TAF COR
KDUJ 281158Z 2812/2912 00000KT 3SM BR SKC
      TEMPO 2812/2813 2SM BR
     FM281300 09005KT P6SM SCT050=



000
FTUS41 KPBZ 281120
TAFHLG
TAF
KHLG 281120Z 2812/2912 10005KT P6SM SCT040=



000
FTUS41 KPBZ 281120
TAFDUJ
TAF
KDUJ 281120Z 2812/2912 00000KT 3SM BR SKC
      TEMPO 2812/2813 1SM BR
     FM281300 09005KT P6SM SCT050=



000
FTUS41 KPBZ 281120
TAFBVI
TAF
KBVI 281120Z 2812/2912 09005KT P6SM SCT040=



000
FTUS41 KPBZ 281120
TAFPIT
TAF
KPIT 281120Z 2812/2918 09005KT P6SM SCT040=



000
FTUS41 KPBZ 281120
TAFZZV
TAF
KZZV 281120Z 2812/2912 10005KT P6SM SCT040=



000
FTUS41 KPBZ 281120
TAFLBE
TAF
KLBE 281120Z 2812/2912 00000KT 3SM BR SKC
     FM281300 08005KT P6SM SCT040=



000
FTUS41 KPBZ 281120
TAFAGC
TAF
KAGC 281120Z 2812/2912 00000KT 1 1/2SM BR SKC
     FM281300 09005KT P6SM SCT040=



000
FTUS41 KPBZ 281120
TAFMGW
TAF
KMGW 281120Z 2812/2912 00000KT P6SM SCT250
     FM281400 VRB03KT P6SM BKN040
     FM290000 00000KT P6SM SCT050=



000
FTUS41 KPBZ 281007 AAC
TAFDUJ
TAF AMD
KDUJ 281007Z 2810/2906 00000KT 2SM BR SKC
      TEMPO 2810/2811 1/4SM FG
     FM281300 09005KT P6SM SCT050=



000
FTUS41 KPBZ 281007 AAC
TAFDUJ
TAF AMD
KDUJ 281007Z 2810/2906 00000KT 2SM BR SKC
      TEMPO 2810/2811 1/4SM FG
     FM281300 09005KT P6SM SCT050=



000
FTUS41 KPBZ 280901 AAB
TAFMGW
TAF AMD
KMGW 280901Z 2809/2906 00000KT P6SM SCT070
      TEMPO 2810/2812 5SM BR
     FM281300 VRB03KT P6SM BKN040=



000
FTUS41 KPBZ 280901 AAB
TAFMGW
TAF AMD
KMGW 280901Z 2809/2906 00000KT P6SM SCT070
      TEMPO 2810/2812 5SM BR
     FM281300 VRB03KT P6SM BKN040=



000
FTUS41 KPBZ 280855 AAA
TAFPIT
TAF AMD
KPIT 280855Z 2809/2912 00000KT P6SM SCT250
      TEMPO 2810/2812 5SM BR
     FM281400 09005KT P6SM SCT040=



000
FTUS41 KPBZ 280804 AAA
TAFZZV
TAF AMD
KZZV 280804Z 2808/2906 01005KT P6SM SCT070
      TEMPO 2810/2812 5SM BR
     FM281400 10005KT P6SM BKN040=



000
FTUS41 KPBZ 280803 AAA
TAFMGW
TAF AMD
KMGW 280803Z 2808/2906 00000KT P6SM SCT070
      TEMPO 2809/2812 5SM BR
     FM281300 VRB03KT P6SM BKN040=



000
FTUS41 KPBZ 280803 AAA
TAFHLG
TAF AMD
KHLG 280803Z 2808/2906 00000KT P6SM SCT250
      TEMPO 2810/2812 5SM BR
     FM281300 10005KT P6SM SCT040=



000
FTUS41 KPBZ 280802 AAA
TAFAGC
TAF AMD
KAGC 280802Z 2808/2906 00000KT P6SM SCT250
      TEMPO 2808/2812 5SM BR
     FM281400 09005KT P6SM SCT040=



000
FTUS41 KPBZ 280721 AAB
TAFDUJ
TAF AMD
KDUJ 280721Z 2807/2906 00000KT 3SM BR SKC
      TEMPO 2807/2811 1SM BR
     FM281300 09005KT P6SM SCT050=



000
FTUS41 KPBZ 280658 AAA
TAFDUJ
TAF AMD
KDUJ 280658Z 2807/2906 00000KT 3SM BR SKC
     FM281300 09005KT P6SM SCT050=



000
FTUS41 KPBZ 280658 AAA
TAFDUJ
TAF AMD
KDUJ 280658Z 2807/2906 00000KT 3SM BR SKC
     FM281300 09005KT P6SM SCT050=



000
FTUS41 KPBZ 280535
TAFPIT
TAF
KPIT 280535Z 2806/2912 00000KT P6SM SCT250
     FM281400 09005KT P6SM SCT040=



000
FTUS41 KPBZ 280535
TAFLBE
TAF
KLBE 280535Z 2806/2906 00000KT P6SM SCT250
      TEMPO 2809/2813 5SM BR
     FM281400 08005KT P6SM SCT040
      AMD NOT SKED=



000
FTUS41 KPBZ 280535
TAFMGW
TAF
KMGW 280535Z 2806/2906 00000KT P6SM SCT070
     FM280800 00000KT 3SM BR SCT070
     FM281300 VRB03KT P6SM BKN040=



000
FTUS41 KPBZ 280535
TAFHLG
TAF
KHLG 280535Z 2806/2906 00000KT P6SM SCT250
     FM280800 00000KT 3SM BR SCT250
     FM281300 10005KT P6SM SCT040=



000
FTUS41 KPBZ 280535
TAFAGC
TAF
KAGC 280535Z 2806/2906 00000KT P6SM SCT250
      TEMPO 2809/2812 5SM BR
     FM281400 09005KT P6SM SCT040=



000
FTUS41 KPBZ 280535
TAFDUJ
TAF
KDUJ 280535Z 2806/2906 05005KT P6SM SKC
     FM280800 00000KT 5SM BR SKC
     FM281300 09005KT P6SM SCT050=



000
FTUS41 KPBZ 280535
TAFBVI
TAF
KBVI 280535Z 2806/2906 00000KT P6SM SCT250
     FM281400 09005KT P6SM SCT040
      AMD NOT SKED=



000
FTUS41 KPBZ 280535
TAFPIT
TAF
KPIT 280535Z 2806/2912 00000KT P6SM SCT250
     FM281400 09005KT P6SM SCT040=



000
FTUS41 KPBZ 280535
TAFZZV
TAF
KZZV 280535Z 2806/2906 01005KT P6SM SCT070
     FM280800 00000KT 3SM BR SCT070
     FM281400 10005KT P6SM BKN040=



000
FTUS41 KPBZ 280535
TAFLBE
TAF
KLBE 280535Z 2806/2906 00000KT P6SM SCT250
      TEMPO 2809/2813 5SM BR
     FM281400 08005KT P6SM SCT040
      AMD NOT SKED=



000
FTUS41 KPBZ 280240 AAA
TAFPIT
TAF AMD
KPIT 280240Z 2802/2906 02005KT P6SM SKC
     FM281600 10005KT P6SM BKN050
     FM290100 VRB03KT P6SM SKC=



000
FTUS41 KPBZ 280240 AAA
TAFPIT
TAF AMD
KPIT 280240Z 2802/2906 02005KT P6SM SKC
     FM281600 10005KT P6SM BKN050
     FM290100 VRB03KT P6SM SKC=



000
FTUS41 KPBZ 272320
TAFAGC
TAF
KAGC 272320Z 2800/2824 06005KT P6SM SKC
     FM280900 00000KT 5SM BR SKC
     FM281400 10005KT P6SM BKN050=



000
FTUS41 KPBZ 272320
TAFLBE
TAF
KLBE 272320Z 2800/2824 02005KT P6SM SKC
     FM280900 00000KT 5SM BR SKC
     FM281400 10005KT P6SM BKN050
      AMD NOT SKED 2802/2811=



000
FTUS41 KPBZ 272320
TAFBVI
TAF
KBVI 272320Z 2800/2824 01005KT P6SM SKC
     FM280800 00000KT 5SM BR SKC
     FM281400 10005KT P6SM BKN035
      AMD NOT SKED 2802/2812=



000
FTUS41 KPBZ 272320
TAFHLG
TAF
KHLG 272320Z 2800/2824 01005KT P6SM SKC
     FM281000 00000KT 2SM BR SKC
     FM281400 10005KT P6SM BKN035=



000
FTUS41 KPBZ 272320
TAFZZV
TAF
KZZV 272320Z 2800/2824 01005KT P6SM SKC
     FM280800 00000KT 2SM BR SKC
     FM281400 10005KT P6SM BKN035=



000
FTUS41 KPBZ 272320
TAFPIT
TAF
KPIT 272320Z 2800/2906 VRB03KT P6SM SKC
     FM281600 10005KT P6SM BKN050
     FM290100 VRB03KT P6SM SKC=



000
FTUS41 KPBZ 272320
TAFDUJ
TAF
KDUJ 272320Z 2800/2824 05005KT P6SM SKC
     FM280800 00000KT 5SM BR SKC
     FM281500 10005KT P6SM SCT035=



000
FTUS41 KPBZ 272320
TAFZZV
TAF
KZZV 272320Z 2800/2824 01005KT P6SM SKC
     FM280800 00000KT 2SM BR SKC
     FM281400 10005KT P6SM BKN035=



000
FTUS41 KPBZ 272320
TAFMGW
TAF
KMGW 272320Z 2800/2824 VRB03KT P6SM SCT050
     FM280900 00000KT 2SM BR SKC
     FM281400 10005KT P6SM BKN050=



000
FTUS41 KPBZ 272320
TAFDUJ
TAF
KDUJ 272320Z 2800/2824 05005KT P6SM SKC
     FM280800 00000KT 5SM BR SKC
     FM281500 10005KT P6SM SCT035=



000
FTUS41 KPBZ 272320
TAFAGC
TAF
KAGC 272320Z 2800/2824 06005KT P6SM SKC
     FM280900 00000KT 5SM BR SKC
     FM281400 10005KT P6SM BKN050=



000
FTUS41 KPBZ 272320
TAFPIT
TAF
KPIT 272320Z 2800/2906 VRB03KT P6SM SKC
     FM281600 10005KT P6SM BKN050
     FM290100 VRB03KT P6SM SKC=



000
FTUS41 KPBZ 272320
TAFLBE
TAF
KLBE 272320Z 2800/2824 02005KT P6SM SKC
     FM280900 00000KT 5SM BR SKC
     FM281400 10005KT P6SM BKN050
      AMD NOT SKED 2802/2811=



000
FTUS41 KPBZ 272320
TAFHLG
TAF
KHLG 272320Z 2800/2824 01005KT P6SM SKC
     FM281000 00000KT 2SM BR SKC
     FM281400 10005KT P6SM BKN035=



000
FTUS41 KPBZ 272320
TAFBVI
TAF
KBVI 272320Z 2800/2824 01005KT P6SM SKC
     FM280800 00000KT 5SM BR SKC
     FM281400 10005KT P6SM BKN035
      AMD NOT SKED 2802/2812=



000
FTUS41 KPBZ 272320
TAFMGW
TAF
KMGW 272320Z 2800/2824 VRB03KT P6SM SCT050
     FM280900 00000KT 2SM BR SKC
     FM281400 10005KT P6SM BKN050=



000
FTUS41 KPBZ 271735
TAFMGW
TAF
KMGW 271735Z 2718/2818 02005KT P6SM VCSH BKN035
     FM280000 VRB03KT P6SM SCT050
     FM280900 00000KT 4SM BR SKC
     FM281300 10005KT P6SM SCT035=



000
FTUS41 KPBZ 271735
TAFHLG
TAF
KHLG 271735Z 2718/2818 02005KT P6SM BKN035
     FM272100 01005KT P6SM SCT050
     FM280800 00000KT 3SM BR SKC
     FM281000 00000KT 2SM BR SKC
     FM281300 10005KT P6SM SCT035=



000
FTUS41 KPBZ 271735
TAFBVI
TAF
KBVI 271735Z 2718/2818 01005KT P6SM SCT050
     FM280800 00000KT 5SM BR SKC
     FM281300 10005KT P6SM SCT035=



000
FTUS41 KPBZ 271735
TAFLBE
TAF
KLBE 271735Z 2718/2818 36005KT P6SM BKN035
     FM272100 02005KT P6SM SCT050
     FM280900 00000KT 3SM BR SKC
     FM281300 10005KT P6SM SCT035=



000
FTUS41 KPBZ 271735
TAFDUJ
TAF
KDUJ 271735Z 2718/2818 05005KT P6SM SCT050
     FM280700 00000KT 3SM BR SKC
     FM281300 10005KT P6SM SCT035=



000
FTUS41 KPBZ 271735
TAFPIT
TAF
KPIT 271735Z 2718/2824 05005KT P6SM SCT050
     FM280900 00000KT 5SM BR SKC
     FM281300 10005KT P6SM SCT035=



000
FTUS41 KPBZ 271735
TAFAGC
TAF
KAGC 271735Z 2718/2818 06005KT P6SM SCT050
     FM280800 00000KT 3SM BR SKC
     FM281300 10005KT P6SM SCT035=



000
FTUS41 KPBZ 271735
TAFZZV
TAF
KZZV 271735Z 2718/2818 02005KT P6SM BKN080
     FM272100 01005KT P6SM SCT120
     FM280800 00000KT 3SM BR SKC
     FM281000 00000KT 2SM BR SKC
     FM281300 10005KT P6SM SCT035=



000
FTUS41 KPBZ 271506 AAA
TAFPIT
TAF AMD
KPIT 271506Z 2715/2818 05005KT P6SM SCT050
     FM280900 00000KT 5SM BR SKC
     FM281300 10005KT P6SM SCT035=



000
FTUS41 KPBZ 271453 AAA
TAFBVI
TAF AMD
KBVI 271453Z 2715/2812 01005KT P6SM SCT050
     FM280800 00000KT 3SM BR SKC=



000
FTUS41 KPBZ 271453 AAA
TAFBVI
TAF AMD
KBVI 271453Z 2715/2812 01005KT P6SM SCT050
     FM280800 00000KT 3SM BR SKC=



000
FTUS41 KPBZ 271452 AAC
TAFAGC
TAF AMD
KAGC 271452Z 2715/2812 06005KT P6SM SCT050
     FM280800 00000KT 3SM BR SKC=



000
FTUS41 KPBZ 271452 AAC
TAFAGC
TAF AMD
KAGC 271452Z 2715/2812 06005KT P6SM SCT050
     FM280800 00000KT 3SM BR SKC=



000
FTUS41 KPBZ 271404 AAB
TAFAGC
TAF AMD
KAGC 271404Z 2714/2812 00000KT 6SM BR SCT006
      TEMPO 2714/2715 BKN005
     FM271500 02005KT P6SM BKN035
     FM272100 01005KT P6SM SCT050
     FM280800 00000KT 3SM BR SKC=



000
FTUS41 KPBZ 271404 AAB
TAFAGC
TAF AMD
KAGC 271404Z 2714/2812 00000KT 6SM BR SCT006
      TEMPO 2714/2715 BKN005
     FM271500 02005KT P6SM BKN035
     FM272100 01005KT P6SM SCT050
     FM280800 00000KT 3SM BR SKC=



000
FTUS41 KPBZ 271400 AAA
TAFDUJ
TAF AMD
KDUJ 271400Z 2714/2812 05005KT P6SM SCT050
     FM280700 00000KT 3SM BR SKC=



000
FTUS41 KPBZ 271259 AAA
TAFHLG
TAF AMD
KHLG 271259Z 2713/2812 VRB03KT 5SM BR BKN002
     FM271400 02005KT P6SM BKN035
     FM272100 01005KT P6SM SCT050
     FM280800 00000KT 3SM BR SKC=



000
FTUS41 KPBZ 271208 AAA
TAFAGC
TAF AMD
KAGC 271208Z 2712/2812 00000KT 3SM BR SCT006
      TEMPO 2712/2713 1/2SM FG BKN002
     FM271400 02005KT P6SM BKN035
     FM272100 01005KT P6SM SCT050
     FM280800 00000KT 3SM BR SKC=



000
FTUS41 KPBZ 271208 AAA
TAFAGC
TAF AMD
KAGC 271208Z 2712/2812 00000KT 3SM BR SCT006
      TEMPO 2712/2713 1/2SM FG BKN002
     FM271400 02005KT P6SM BKN035
     FM272100 01005KT P6SM SCT050
     FM280800 00000KT 3SM BR SKC=



000
FTUS41 KPBZ 271137
TAFHLG
TAF
KHLG 271137Z 2712/2812 VRB03KT 2SM BR SCT006
      TEMPO 2712/2713 3/4SM BR BKN001
     FM271400 02005KT P6SM BKN035
     FM272100 01005KT P6SM SCT050
     FM280800 00000KT 3SM BR SKC=



000
FTUS41 KPBZ 271137
TAFZZV
TAF
KZZV 271137Z 2712/2812 00000KT 3SM BR BKN200
      TEMPO 2712/2713 2SM BR
     FM271400 02005KT P6SM BKN035
     FM272100 01005KT P6SM SCT050
     FM280800 00000KT 3SM BR SKC=



000
FTUS41 KPBZ 271137
TAFDUJ
TAF
KDUJ 271137Z 2712/2812 00000KT 3SM BR SCT002
      TEMPO 2712/2713 1SM BR BKN002
     FM271500 05005KT P6SM BKN035
     FM272000 05005KT P6SM SCT050
     FM280700 00000KT 3SM BR SKC=



000
FTUS41 KPBZ 271137
TAFMGW
TAF
KMGW 271137Z 2712/2812 VRB03KT P6SM SCT035
      TEMPO 2712/2713 5SM BR
     FM271400 02005KT P6SM BKN035
     FM280000 VRB03KT P6SM SCT050=



000
FTUS41 KPBZ 271137
TAFPIT
TAF
KPIT 271137Z 2712/2818 VRB03KT 6SM BR SCT006
     FM271400 02005KT P6SM BKN035
     FM272100 01005KT P6SM SCT050
     FM280900 00000KT 5SM BR SKC
     FM281300 10005KT P6SM SCT035=



000
FTUS41 KPBZ 271137
TAFLBE
TAF
KLBE 271137Z 2712/2812 00000KT 3SM BR SCT010
     FM271400 36005KT P6SM BKN035
     FM272100 02005KT P6SM SCT050
     FM280900 00000KT 5SM BR SKC=



000
FTUS41 KPBZ 271137
TAFAGC
TAF
KAGC 271137Z 2712/2812 00000KT 3SM BR SCT006
      TEMPO 2712/2713 1SM BR BKN002
     FM271400 02005KT P6SM BKN035
     FM272100 01005KT P6SM SCT050
     FM280800 00000KT 3SM BR SKC=



000
FTUS41 KPBZ 271137
TAFBVI
TAF
KBVI 271137Z 2712/2812 00000KT 3SM BR SCT006
      TEMPO 2712/2713 2SM BR BKN006
     FM271400 02005KT P6SM BKN035
     FM272100 01005KT P6SM SCT050
     FM280800 00000KT 3SM BR SKC=



000
FTUS41 KPBZ 271000 AAC
TAFPIT
TAF AMD
KPIT 271000Z 2710/2812 VRB03KT P6SM SCT006
      TEMPO 2710/2713 5SM BR BKN006
     FM271400 02005KT P6SM BKN035
     FM272100 01005KT P6SM SCT050=



000
FTUS41 KPBZ 270903 AAA
TAFZZV
TAF AMD
KZZV 270903Z 2709/2806 00000KT 3SM BR BKN200
      TEMPO 2710/2712 2SM BR
     FM271400 02005KT P6SM BKN035
     FM272100 01005KT P6SM SCT050=



000
FTUS41 KPBZ 270903 AAA
TAFZZV
TAF AMD
KZZV 270903Z 2709/2806 00000KT 3SM BR BKN200
      TEMPO 2710/2712 2SM BR
     FM271400 02005KT P6SM BKN035
     FM272100 01005KT P6SM SCT050=



000
FTUS41 KPBZ 270903 AAB
TAFMGW
TAF AMD
KMGW 270903Z 2709/2806 00000KT P6SM BKN035
      TEMPO 2710/2712 5SM BR
     FM271400 VRB03KT P6SM BKN035
     FM280000 VRB03KT P6SM SCT050=



000
FTUS41 KPBZ 270903 AAB
TAFMGW
TAF AMD
KMGW 270903Z 2709/2806 00000KT P6SM BKN035
      TEMPO 2710/2712 5SM BR
     FM271400 VRB03KT P6SM BKN035
     FM280000 VRB03KT P6SM SCT050=



000
FTUS41 KPBZ 270902 AAB
TAFAGC
TAF AMD
KAGC 270902Z 2709/2806 00000KT 2SM BR SCT006
      TEMPO 2709/2712 1SM BR BKN006
     FM271400 02005KT P6SM BKN035
     FM272100 01005KT P6SM SCT050=



000
FTUS41 KPBZ 270902 AAB
TAFAGC
TAF AMD
KAGC 270902Z 2709/2806 00000KT 2SM BR SCT006
      TEMPO 2709/2712 1SM BR BKN006
     FM271400 02005KT P6SM BKN035
     FM272100 01005KT P6SM SCT050=



000
FTUS41 KPBZ 270901 AAA
TAFDUJ
TAF AMD
KDUJ 270901Z 2709/2806 00000KT 1SM BR BKN200
      TEMPO 2709/2712 1/4SM FG
     FM271400 05005KT P6SM BKN035
     FM271800 05005KT P6SM SCT050=



000
FTUS41 KPBZ 270901 AAA
TAFDUJ
TAF AMD
KDUJ 270901Z 2709/2806 00000KT 1SM BR BKN200
      TEMPO 2709/2712 1/4SM FG
     FM271400 05005KT P6SM BKN035
     FM271800 05005KT P6SM SCT050=



000
FTUS41 KPBZ 270855 CCA
TAFPIT
TAF COR
KPIT 270855Z 2709/2812 VRB03KT 5SM BR SCT010
     FM271400 02005KT P6SM BKN035
     FM272100 01005KT P6SM SCT050=



000
FTUS41 KPBZ 270854 AAB
TAFPIT
TAF AMD
KPIT 270854Z 2709/2812 VRB03KT 5SM BR SCT010
     FM271300 00000KT 3SM BR BKN200
     FM271400 02005KT P6SM BKN035
     FM272100 01005KT P6SM SCT050=



000
FTUS41 KPBZ 270845 AAD
TAFHLG
TAF AMD
KHLG 270845Z 2709/2806 00000KT 1/4SM FG BKN001
     FM271200 VRB03KT 2SM BR BKN020
     FM271400 02005KT P6SM BKN035
     FM272100 01005KT P6SM SCT050=



000
FTUS41 KPBZ 270845 AAD
TAFHLG
TAF AMD
KHLG 270845Z 2709/2806 00000KT 1/4SM FG BKN001
     FM271200 VRB03KT 2SM BR BKN020
     FM271400 02005KT P6SM BKN035
     FM272100 01005KT P6SM SCT050=



000
FTUS41 KPBZ 270801 AAA
TAFMGW
TAF AMD
KMGW 270801Z 2708/2806 00000KT P6SM BKN035
     FM270900 00000KT 5SM BR BKN035
     FM271400 VRB03KT P6SM BKN035
     FM280000 VRB03KT P6SM SCT050=



000
FTUS41 KPBZ 270702 AAA
TAFAGC
TAF AMD
KAGC 270702Z 2707/2806 00000KT 3SM BR SCT006 BKN025
      TEMPO 2709/2712 2SM BR BKN006
     FM271400 02005KT P6SM BKN035
     FM272100 01005KT P6SM SCT050=



000
FTUS41 KPBZ 270659 AAA
TAFPIT
TAF AMD
KPIT 270659Z 2707/2812 VRB03KT 5SM BR SCT006
      TEMPO 2707/2711 BKN006
     FM271300 00000KT 3SM BR BKN200
     FM271400 02005KT P6SM BKN035
     FM272100 01005KT P6SM SCT050=



000
FTUS41 KPBZ 270629 AAC
TAFHLG
TAF AMD
KHLG 270629Z 2706/2806 00000KT 1SM BR BKN200
      TEMPO 2706/2710 1/2SM FG VV002
     FM271400 02005KT P6SM BKN035
     FM272100 01005KT P6SM SCT050=



000
FTUS41 KPBZ 270627 AAB
TAFHLG
TAF AMD
KHLG 270627Z 2706/2806 00000KT 3SM BR BKN200
      TEMPO 2706/2708 1SM BR
     FM270800 00000KT 1SM BR BKN200
     FM271400 02005KT P6SM BKN035
     FM272100 01005KT P6SM SCT050=



000
FTUS41 KPBZ 270627 AAB
TAFHLG
TAF AMD
KHLG 270627Z 2706/2806 00000KT 3SM BR BKN200
      TEMPO 2706/2708 1SM BR
     FM270800 00000KT 1SM BR BKN200
     FM271400 02005KT P6SM BKN035
     FM272100 01005KT P6SM SCT050=



000
FTUS41 KPBZ 270606 AAA
TAFHLG
TAF AMD
KHLG 270606Z 2706/2806 00000KT 3SM BR BKN200
      TEMPO 2706/2708 2SM BR
     FM270800 00000KT 1SM BR BKN200
     FM271400 02005KT P6SM BKN035
     FM272100 01005KT P6SM SCT050=



000
FTUS41 KPBZ 270606 AAA
TAFHLG
TAF AMD
KHLG 270606Z 2706/2806 00000KT 3SM BR BKN200
      TEMPO 2706/2708 2SM BR
     FM270800 00000KT 1SM BR BKN200
     FM271400 02005KT P6SM BKN035
     FM272100 01005KT P6SM SCT050=



000
FTUS41 KPBZ 270521 CCA
TAFDUJ
TAF COR
KDUJ 270521Z 2706/2806 00000KT 1SM BR BKN200
      TEMPO 2708/2712 1/2SM FG
     FM271400 05005KT P6SM BKN035
     FM271800 05005KT P6SM SCT050=



000
FTUS41 KPBZ 270521 CCA
TAFHLG
TAF COR
KHLG 270521Z 2706/2806 00000KT 1SM BR BKN200
      TEMPO 2706/2710 1/2SM FG
     FM271400 02005KT P6SM BKN035
     FM272100 01005KT P6SM SCT050=



000
FTUS41 KPBZ 270520
TAFLBE
TAF
KLBE 270520Z 2706/2806 VRB03KT P6SM BKN200
     FM270800 00000KT 3SM BR BKN200
     FM271400 36005KT P6SM BKN035
     FM272100 02005KT P6SM SCT050
      AMD NOT SKED=



000
FTUS41 KPBZ 270520
TAFHLG
TAF
KHLG 270520Z 2706/2806 00000KT 2SM BR BKN200
     FM270800 00000KT 1SM BR BKN200
      TEMPO 2709/2711 3/4SM BR
     FM271400 02005KT P6SM BKN035
     FM272100 01005KT P6SM SCT050=



000
FTUS41 KPBZ 270520
TAFMGW
TAF
KMGW 270520Z 2706/2806 00000KT P6SM BKN070
     FM270800 VRB01KT 5SM BR BKN100
     FM271400 VRB03KT P6SM BKN035
     FM280000 VRB03KT P6SM SCT050=



000
FTUS41 KPBZ 270520
TAFBVI
TAF
KBVI 270520Z 2706/2806 VRB03KT P6SM BKN200
     FM270700 00000KT 3SM BR BKN200
      TEMPO 2709/2712 2SM BR
     FM271400 02005KT P6SM BKN035
     FM272100 01005KT P6SM SCT050
      AMD NOT SKED=



000
FTUS41 KPBZ 270520
TAFAGC
TAF
KAGC 270520Z 2706/2806 VRB03KT P6SM BKN200
     FM270800 00000KT 3SM BR BKN200
      TEMPO 2709/2712 2SM BR
     FM271400 02005KT P6SM BKN035
     FM272100 01005KT P6SM SCT050=



000
FTUS41 KPBZ 270520
TAFDUJ
TAF
KDUJ 270520Z 2706/2806 00000KT 2SM BR BKN200
     FM270700 00000KT 1SM BR SCT200
      TEMPO 2708/2712 1/2SM FG
     FM271400 05005KT P6SM BKN035
     FM271800 05005KT P6SM SCT050=



000
FTUS41 KPBZ 270520
TAFZZV
TAF
KZZV 270520Z 2706/2806 00000KT 3SM BR BKN200
      TEMPO 2709/2712 2SM BR
     FM271400 02005KT P6SM BKN035
     FM272100 01005KT P6SM SCT050=



000
FTUS41 KPBZ 270520
TAFPIT
TAF
KPIT 270520Z 2706/2812 VRB03KT P6SM BKN200
     FM270800 00000KT 3SM BR BKN200
     FM271400 02005KT P6SM BKN035
     FM272100 01005KT P6SM SCT050=



000
FTUS41 KPBZ 270520
TAFBVI
TAF
KBVI 270520Z 2706/2806 VRB03KT P6SM BKN200
     FM270700 00000KT 3SM BR BKN200
      TEMPO 2709/2712 2SM BR
     FM271400 02005KT P6SM BKN035
     FM272100 01005KT P6SM SCT050
      AMD NOT SKED=



000
FTUS41 KPBZ 270520
TAFAGC
TAF
KAGC 270520Z 2706/2806 VRB03KT P6SM BKN200
     FM270800 00000KT 3SM BR BKN200
      TEMPO 2709/2712 2SM BR
     FM271400 02005KT P6SM BKN035
     FM272100 01005KT P6SM SCT050=



000
FTUS41 KPBZ 270520
TAFZZV
TAF
KZZV 270520Z 2706/2806 00000KT 3SM BR BKN200
      TEMPO 2709/2712 2SM BR
     FM271400 02005KT P6SM BKN035
     FM272100 01005KT P6SM SCT050=



000
FTUS41 KPBZ 270520
TAFDUJ
TAF
KDUJ 270520Z 2706/2806 00000KT 2SM BR BKN200
     FM270700 00000KT 1SM BR SCT200
      TEMPO 2708/2712 1/2SM FG
     FM271400 05005KT P6SM BKN035
     FM271800 05005KT P6SM SCT050=



000
FTUS41 KPBZ 270520
TAFPIT
TAF
KPIT 270520Z 2706/2812 VRB03KT P6SM BKN200
     FM270800 00000KT 3SM BR BKN200
     FM271400 02005KT P6SM BKN035
     FM272100 01005KT P6SM SCT050=



000
FTUS41 KPBZ 270520
TAFMGW
TAF
KMGW 270520Z 2706/2806 00000KT P6SM BKN070
     FM270800 VRB01KT 5SM BR BKN100
     FM271400 VRB03KT P6SM BKN035
     FM280000 VRB03KT P6SM SCT050=



000
FTUS41 KPBZ 270520
TAFHLG
TAF
KHLG 270520Z 2706/2806 00000KT 2SM BR BKN200
     FM270800 00000KT 1SM BR BKN200
      TEMPO 2709/2711 3/4SM BR
     FM271400 02005KT P6SM BKN035
     FM272100 01005KT P6SM SCT050=



000
FTUS41 KPBZ 270520
TAFLBE
TAF
KLBE 270520Z 2706/2806 VRB03KT P6SM BKN200
     FM270800 00000KT 3SM BR BKN200
     FM271400 36005KT P6SM BKN035
     FM272100 02005KT P6SM SCT050
      AMD NOT SKED=



000
FTUS41 KPBZ 270427 AAC
TAFHLG
TAF AMD
KHLG 270427Z 2704/2724 VRB03KT 3SM BR BKN200
      TEMPO 2704/2706 1SM BR
     FM270600 00000KT 3/4SM BR BKN010
     FM271300 VRB03KT P6SM BKN250=



000
FTUS41 KPBZ 270359 AAA
TAFDUJ
TAF AMD
KDUJ 270359Z 2704/2724 00000KT 3SM BR BKN200
     FM270800 00000KT 1SM BR BKN010
     FM271300 05005KT P6SM BKN250=



000
FTUS41 KPBZ 270346 AAB
TAFHLG
TAF AMD
KHLG 270346Z 2704/2724 VRB03KT 3SM BR BKN150
      TEMPO 2704/2706 1/2SM FG
     FM270600 00000KT 3/4SM BR BKN010
     FM271300 VRB03KT P6SM BKN250=



000
FTUS41 KPBZ 270346 AAB
TAFHLG
TAF AMD
KHLG 270346Z 2704/2724 VRB03KT 3SM BR BKN150
      TEMPO 2704/2706 1/2SM FG
     FM270600 00000KT 3/4SM BR BKN010
     FM271300 VRB03KT P6SM BKN250=



000
FTUS41 KPBZ 270324 AAA
TAFHLG
TAF AMD
KHLG 270324Z 2703/2724 26006KT 3SM BR BKN150
      TEMPO 2703/2706 2SM BR
     FM270600 30001KT 1SM BR BKN010
     FM271300 VRB03KT P6SM BKN250=



000
FTUS41 KPBZ 270324 AAA
TAFHLG
TAF AMD
KHLG 270324Z 2703/2724 26006KT 3SM BR BKN150
      TEMPO 2703/2706 2SM BR
     FM270600 30001KT 1SM BR BKN010
     FM271300 VRB03KT P6SM BKN250=



000
FTUS41 KPBZ 270255 AAB
TAFPIT
TAF AMD
KPIT 270255Z 2703/2806 VRB03KT P6SM SCT100
     FM270800 00000KT 4SM BR SCT100
     FM271300 32003KT P6SM BKN250=



000
FTUS41 KPBZ 270220 AAA
TAFPIT
TAF AMD
KPIT 270220Z 2702/2806 VRB02KT P6SM SCT100
     FM270800 30001KT 4SM BR SCT100
     FM271300 32003KT P6SM BKN250=



000
FTUS41 KPBZ 262320
TAFDUJ
TAF
KDUJ 262320Z 2700/2724 29005KT P6SM BKN040
     FM270500 VRB02KT 4SM BR BKN030
     FM270800 VRB01KT 1SM BR BKN010
     FM271300 05005KT P6SM BKN250=



000
FTUS41 KPBZ 262320
TAFLBE
TAF
KLBE 262320Z 2700/2724 27005KT P6SM SCT050
     FM270800 32001KT 5SM BR SCT100
     FM271300 34005KT P6SM BKN250
      AMD NOT SKED 2700/2712=



000
FTUS41 KPBZ 262320
TAFPIT
TAF
KPIT 262320Z 2700/2806 30002KT P6SM SCT050
     FM270800 30001KT 5SM BR SCT100
     FM271300 32003KT P6SM BKN250=



000
FTUS41 KPBZ 262320
TAFMGW
TAF
KMGW 262320Z 2700/2724 25005KT P6SM OVC100
     FM270800 VRB01KT 5SM BR SCT100
     FM271300 32003KT P6SM BKN250=



000
FTUS41 KPBZ 262320
TAFAGC
TAF
KAGC 262320Z 2700/2724 30002KT P6SM SCT050
     FM270800 30001KT 5SM BR SCT100
     FM271300 32003KT P6SM BKN250=



000
FTUS41 KPBZ 262320
TAFAGC
TAF
KAGC 262320Z 2700/2724 30002KT P6SM SCT050
     FM270800 30001KT 5SM BR SCT100
     FM271300 32003KT P6SM BKN250=



000
FTUS41 KPBZ 262320
TAFBVI
TAF
KBVI 262320Z 2700/2724 32002KT P6SM SCT050
     FM270800 30001KT 4SM BR SCT100
     FM271300 32003KT P6SM BKN250
      AMD NOT SKED 2700/2712=



000
FTUS41 KPBZ 262320
TAFZZV
TAF
KZZV 262320Z 2700/2724 VRB04KT 6SM -SHRA BKN045
     FM270100 VRB02KT P6SM SCT030
     FM270700 00000KT 2SM BR BKN010
     FM271300 04003KT P6SM BKN100=



000
FTUS41 KPBZ 262320
TAFHLG
TAF
KHLG 262320Z 2700/2724 26006KT P6SM BKN050
      TEMPO 2700/2702 5SM SHRA BR BKN035
     FM270800 30001KT 2SM BR BKN010
     FM271300 VRB03KT P6SM BKN250=



000
FTUS41 KPBZ 262320
TAFHLG
TAF
KHLG 262320Z 2700/2724 26006KT P6SM BKN050
      TEMPO 2700/2702 5SM SHRA BR BKN035
     FM270800 30001KT 2SM BR BKN010
     FM271300 VRB03KT P6SM BKN250=



000
FTUS41 KPBZ 262320
TAFPIT
TAF
KPIT 262320Z 2700/2806 30002KT P6SM SCT050
     FM270800 30001KT 5SM BR SCT100
     FM271300 32003KT P6SM BKN250=



000
FTUS41 KPBZ 262320
TAFDUJ
TAF
KDUJ 262320Z 2700/2724 29005KT P6SM BKN040
     FM270500 VRB02KT 4SM BR BKN030
     FM270800 VRB01KT 1SM BR BKN010
     FM271300 05005KT P6SM BKN250=



000
FTUS41 KPBZ 262320
TAFLBE
TAF
KLBE 262320Z 2700/2724 27005KT P6SM SCT050
     FM270800 32001KT 5SM BR SCT100
     FM271300 34005KT P6SM BKN250
      AMD NOT SKED 2700/2712=



000
FTUS41 KPBZ 262320
TAFMGW
TAF
KMGW 262320Z 2700/2724 25005KT P6SM OVC100
     FM270800 VRB01KT 5SM BR SCT100
     FM271300 32003KT P6SM BKN250=



000
FTUS41 KPBZ 262320
TAFBVI
TAF
KBVI 262320Z 2700/2724 32002KT P6SM SCT050
     FM270800 30001KT 4SM BR SCT100
     FM271300 32003KT P6SM BKN250
      AMD NOT SKED 2700/2712=



000
FTUS41 KPBZ 262320
TAFZZV
TAF
KZZV 262320Z 2700/2724 VRB04KT 6SM -SHRA BKN045
     FM270100 VRB02KT P6SM SCT030
     FM270700 00000KT 2SM BR BKN010
     FM271300 04003KT P6SM BKN100=



000
FTUS41 KPBZ 262154 AAA
TAFHLG
TAF AMD
KHLG 262154Z 2622/2718 26006KT P6SM SCT100
      TEMPO 2622/2624 30010KT 5SM TS BKN040CB
     FM270000 29005KT P6SM SCT050
     FM270300 VRB03KT P6SM SCT100=



000
FTUS41 KPBZ 262103 AAA
TAFZZV
TAF AMD
KZZV 262103Z 2621/2718 VRB04KT P6SM TS BKN030CB
     FM262200 29005KT P6SM SCT050
     FM270300 VRB03KT P6SM SCT100=



000
FTUS41 KPBZ 262050 AAA
TAFPIT
TAF AMD
KPIT 262050Z 2621/2724 24006KT P6SM -SHRA BKN040
     FM270000 29005KT P6SM BKN050
     FM270300 VRB03KT P6SM SCT100=



000
FTUS41 KPBZ 261734
TAFDUJ
TAF
KDUJ 261734Z 2618/2718 29005KT P6SM BKN040
      TEMPO 2618/2620 2SM TSRA BKN030CB
     FM262200 28005KT P6SM SCT050
     FM270200 VRB04KT P6SM SCT100=



000
FTUS41 KPBZ 261734
TAFHLG
TAF
KHLG 261734Z 2618/2718 21008KT P6SM VCTS BKN040CB
     FM262200 29005KT P6SM SCT050
     FM270300 VRB03KT P6SM SCT100=



000
FTUS41 KPBZ 261734
TAFZZV
TAF
KZZV 261734Z 2618/2718 VRB04KT P6SM VCTS BKN040CB
     FM262100 29005KT P6SM SCT050
     FM270300 VRB03KT P6SM SCT100=



000
FTUS41 KPBZ 261734
TAFAGC
TAF
KAGC 261734Z 2618/2718 21005KT P6SM VCTS BKN040CB
     FM262200 29005KT P6SM SCT050
     FM270300 VRB03KT P6SM SCT100=



000
FTUS41 KPBZ 261734
TAFMGW
TAF
KMGW 261734Z 2618/2718 21005KT P6SM VCTS BKN040CB
     FM270000 29005KT P6SM SCT050
     FM270400 VRB03KT P6SM SCT100=



000
FTUS41 KPBZ 261734
TAFPIT
TAF
KPIT 261734Z 2618/2724 21005KT P6SM VCTS BKN040CB
     FM262200 29005KT P6SM SCT050
     FM270300 VRB03KT P6SM SCT100=



000
FTUS41 KPBZ 261734
TAFLBE
TAF
KLBE 261734Z 2618/2718 21005KT P6SM VCTS BKN040CB
     FM262300 29005KT P6SM SCT050
     FM270400 VRB03KT P6SM SCT100=



000
FTUS41 KPBZ 261734
TAFBVI
TAF
KBVI 261734Z 2618/2718 21005KT P6SM VCTS BKN040CB
     FM262200 29005KT P6SM SCT050
     FM270300 VRB03KT P6SM SCT100=



000
FTUS41 KPBZ 261734
TAFLBE
TAF
KLBE 261734Z 2618/2718 21005KT P6SM VCTS BKN040CB
     FM262300 29005KT P6SM SCT050
     FM270400 VRB03KT P6SM SCT100=



000
FTUS41 KPBZ 261734
TAFMGW
TAF
KMGW 261734Z 2618/2718 21005KT P6SM VCTS BKN040CB
     FM270000 29005KT P6SM SCT050
     FM270400 VRB03KT P6SM SCT100=



000
FTUS41 KPBZ 261734
TAFPIT
TAF
KPIT 261734Z 2618/2724 21005KT P6SM VCTS BKN040CB
     FM262200 29005KT P6SM SCT050
     FM270300 VRB03KT P6SM SCT100=



000
FTUS41 KPBZ 261734
TAFZZV
TAF
KZZV 261734Z 2618/2718 VRB04KT P6SM VCTS BKN040CB
     FM262100 29005KT P6SM SCT050
     FM270300 VRB03KT P6SM SCT100=



000
FTUS41 KPBZ 261734
TAFDUJ
TAF
KDUJ 261734Z 2618/2718 29005KT P6SM BKN040
      TEMPO 2618/2620 2SM TSRA BKN030CB
     FM262200 28005KT P6SM SCT050
     FM270200 VRB04KT P6SM SCT100=



000
FTUS41 KPBZ 261734
TAFBVI
TAF
KBVI 261734Z 2618/2718 21005KT P6SM VCTS BKN040CB
     FM262200 29005KT P6SM SCT050
     FM270300 VRB03KT P6SM SCT100=



000
FTUS41 KPBZ 261734
TAFHLG
TAF
KHLG 261734Z 2618/2718 21008KT P6SM VCTS BKN040CB
     FM262200 29005KT P6SM SCT050
     FM270300 VRB03KT P6SM SCT100=



000
FTUS41 KPBZ 261734
TAFAGC
TAF
KAGC 261734Z 2618/2718 21005KT P6SM VCTS BKN040CB
     FM262200 29005KT P6SM SCT050
     FM270300 VRB03KT P6SM SCT100=



000
FTUS41 KPBZ 261515 AAA
TAFZZV
TAF AMD
KZZV 261515Z 2615/2712 00000KT 2SM TSRA BR BKN035CB
     FM261600 VRB04KT P6SM BKN040
     FM270200 31005KT P6SM SCT050=



000
FTUS41 KPBZ 261502 AAA
TAFPIT
TAF AMD
KPIT 261502Z 2615/2718 22007KT P6SM SCT060
     FM261800 25005KT P6SM VCSH BKN040
     FM262100 31005KT P6SM SCT050=



000
FTUS41 KPBZ 261133
TAFBVI
TAF
KBVI 261133Z 2612/2712 22003KT P6SM SCT070
     FM261500 25005KT P6SM VCSH BKN035
     FM262000 31005KT P6SM SCT050
      AMD NOT SKED=



000
FTUS41 KPBZ 261133
TAFMGW
TAF
KMGW 261133Z 2612/2712 22003KT P6SM SCT080
     FM262000 25005KT P6SM VCTS BKN040CB
     FM270200 31005KT P6SM SCT050=



000
FTUS41 KPBZ 261133
TAFPIT
TAF
KPIT 261133Z 2612/2718 22003KT P6SM SCT070
     FM261600 25005KT P6SM VCSH BKN040
     FM262100 31005KT P6SM SCT050=



000
FTUS41 KPBZ 261133
TAFDUJ
TAF
KDUJ 261133Z 2612/2712 22005KT P6SM SCT070
     FM261500 29005KT P6SM BKN040
     FM262200 31005KT P6SM SCT050=



000
FTUS41 KPBZ 261133
TAFAGC
TAF
KAGC 261133Z 2612/2712 22003KT P6SM SCT070
     FM261600 25005KT P6SM VCSH BKN040
     FM262100 31005KT P6SM SCT050=



000
FTUS41 KPBZ 261133
TAFPIT
TAF
KPIT 261133Z 2612/2718 22003KT P6SM SCT070
     FM261600 25005KT P6SM VCSH BKN040
     FM262100 31005KT P6SM SCT050=



000
FTUS41 KPBZ 261133
TAFZZV
TAF
KZZV 261133Z 2612/2712 21005KT P6SM SCT070
     FM262000 25005KT P6SM VCTS BKN040CB
     FM270200 31005KT P6SM SCT050=



000
FTUS41 KPBZ 261133
TAFAGC
TAF
KAGC 261133Z 2612/2712 22003KT P6SM SCT070
     FM261600 25005KT P6SM VCSH BKN040
     FM262100 31005KT P6SM SCT050=



000
FTUS41 KPBZ 261133
TAFMGW
TAF
KMGW 261133Z 2612/2712 22003KT P6SM SCT080
     FM262000 25005KT P6SM VCTS BKN040CB
     FM270200 31005KT P6SM SCT050=



000
FTUS41 KPBZ 261133
TAFDUJ
TAF
KDUJ 261133Z 2612/2712 22005KT P6SM SCT070
     FM261500 29005KT P6SM BKN040
     FM262200 31005KT P6SM SCT050=



000
FTUS41 KPBZ 261133
TAFBVI
TAF
KBVI 261133Z 2612/2712 22003KT P6SM SCT070
     FM261500 25005KT P6SM VCSH BKN035
     FM262000 31005KT P6SM SCT050
      AMD NOT SKED=



000
FTUS41 KPBZ 261133
TAFLBE
TAF
KLBE 261133Z 2612/2712 22003KT P6SM SCT070
     FM261700 25005KT P6SM VCTS BKN040CB
     FM262100 31005KT P6SM SCT050
      AMD NOT SKED=



000
FTUS41 KPBZ 261133
TAFHLG
TAF
KHLG 261133Z 2612/2712 22003KT P6SM BKN070
     FM261700 25005KT P6SM VCTS BKN040CB
     FM262200 31005KT P6SM SCT050=



000
FTUS41 KPBZ 261133
TAFZZV
TAF
KZZV 261133Z 2612/2712 21005KT P6SM SCT070
     FM262000 25005KT P6SM VCTS BKN040CB
     FM270200 31005KT P6SM SCT050=



000
FTUS41 KPBZ 261133
TAFLBE
TAF
KLBE 261133Z 2612/2712 22003KT P6SM SCT070
     FM261700 25005KT P6SM VCTS BKN040CB
     FM262100 31005KT P6SM SCT050
      AMD NOT SKED=



000
FTUS41 KPBZ 261133
TAFHLG
TAF
KHLG 261133Z 2612/2712 22003KT P6SM BKN070
     FM261700 25005KT P6SM VCTS BKN040CB
     FM262200 31005KT P6SM SCT050=



000
FTUS41 KPBZ 260858 AAA
TAFPIT
TAF AMD
KPIT 260858Z 2609/2712 22003KT P6SM SCT040 BKN080
     FM261600 25005KT P6SM VCSH BKN040
     FM262100 31005KT P6SM SCT050=



000
FTUS41 KPBZ 260848 AAA
TAFHLG
TAF AMD
KHLG 260848Z 2609/2706 22003KT P6SM BKN070
     FM261700 25005KT P6SM VCTS BKN035CB
     FM262200 31005KT P6SM SCT040=



000
FTUS41 KPBZ 260527
TAFZZV
TAF
KZZV 260527Z 2606/2706 21005KT P6SM SCT070
     FM260800 00000KT 3SM BR SCT070
     FM261200 27002KT P6SM BKN050
     FM262000 25005KT P6SM VCTS BKN035CB
     FM270000 31005KT P6SM SCT040=



000
FTUS41 KPBZ 260527
TAFLBE
TAF
KLBE 260527Z 2606/2706 22003KT P6SM SCT070
     FM261700 25005KT P6SM VCTS BKN035CB
     FM262100 31005KT P6SM SCT040
      AMD NOT SKED=



000
FTUS41 KPBZ 260527
TAFAGC
TAF
KAGC 260527Z 2606/2706 22003KT P6SM SCT070
     FM261400 25005KT P6SM VCSH BKN035
     FM262100 31005KT P6SM SCT040=



000
FTUS41 KPBZ 260527
TAFPIT
TAF
KPIT 260527Z 2606/2712 22003KT P6SM SCT080
     FM261600 25005KT P6SM VCSH BKN035
     FM262100 31005KT P6SM SCT040=



000
FTUS41 KPBZ 260527
TAFMGW
TAF
KMGW 260527Z 2606/2706 22003KT P6SM SCT080
     FM262000 25005KT P6SM VCTS BKN035CB
     FM270000 31005KT P6SM SCT040=



000
FTUS41 KPBZ 260527
TAFDUJ
TAF
KDUJ 260527Z 2606/2706 22005KT P6SM BKN070
     FM261500 29005KT P6SM VCSH BKN035
     FM262200 31005KT P6SM SCT040=



000
FTUS41 KPBZ 260527
TAFHLG
TAF
KHLG 260527Z 2606/2706 22003KT P6SM SCT070
     FM260800 00000KT 5SM BR SCT070
     FM261700 25005KT P6SM VCTS BKN035CB
     FM262200 31005KT P6SM SCT040=



000
FTUS41 KPBZ 260527
TAFHLG
TAF
KHLG 260527Z 2606/2706 22003KT P6SM SCT070
     FM260800 00000KT 5SM BR SCT070
     FM261700 25005KT P6SM VCTS BKN035CB
     FM262200 31005KT P6SM SCT040=



000
FTUS41 KPBZ 260527
TAFBVI
TAF
KBVI 260527Z 2606/2706 22003KT P6SM SCT070
     FM261500 25005KT P6SM VCSH BKN035
     FM262000 31005KT P6SM SCT040
      AMD NOT SKED=



000
FTUS41 KPBZ 260245 AAA
TAFPIT
TAF AMD
KPIT 260245Z 2602/2706 22003KT P6SM SCT080
     FM261400 25005KT P6SM VCSH BKN035
     FM262300 31005KT P6SM SCT040=



000
FTUS41 KPBZ 252336 CCA
TAFDUJ
TAF COR
KDUJ 252336Z 2600/2624 22005KT P6SM BKN070
     FM260800 VRB03KT 3SM BR SCT050
     FM261400 27005KT P6SM BKN025
     FM261700 29005KT P6SM BKN035
     FM262200 31005KT P6SM SCT040=



000
FTUS41 KPBZ 252322
TAFMGW
TAF
KMGW 252322Z 2600/2624 22003KT P6SM SCT070
     FM261400 25005KT P6SM VCSH BKN035=



000
FTUS41 KPBZ 252322
TAFLBE
TAF
KLBE 252322Z 2600/2624 22003KT P6SM SCT070
     FM261400 25005KT P6SM VCSH BKN035
     FM262300 31005KT P6SM SCT040
      AMD NOT SKED 2602/2611=



000
FTUS41 KPBZ 252322
TAFHLG
TAF
KHLG 252322Z 2600/2624 22003KT P6SM SCT070
     FM260800 00000KT 5SM BR SCT070
     FM261400 25005KT P6SM VCSH BKN035
     FM262300 31005KT P6SM SCT040=



000
FTUS41 KPBZ 252322
TAFAGC
TAF
KAGC 252322Z 2600/2624 22003KT P6SM SCT070
     FM261400 25005KT P6SM VCSH BKN035
     FM262300 31005KT P6SM SCT040=



000
FTUS41 KPBZ 252322
TAFPIT
TAF
KPIT 252322Z 2600/2706 22003KT P6SM SCT070
     FM261400 25005KT P6SM VCSH BKN035
     FM262300 31005KT P6SM SCT040=



000
FTUS41 KPBZ 252322
TAFBVI
TAF
KBVI 252322Z 2600/2624 22003KT P6SM SCT070
     FM261300 25005KT P6SM VCSH BKN035
     FM262200 31005KT P6SM SCT040
      AMD NOT SKED=



000
FTUS41 KPBZ 252322
TAFDUJ
TAF
KDUJ 252322Z 2600/2624 22005KT P6SM SCT070
     FM260800 VRB03KT 3SM BR SCT050
     FM261400 27005KT P6SM BKN025
     FM261700 29005KT P6SM BKN035
     FM262200 31005KT P6SM SCT040=



000
FTUS41 KPBZ 252322
TAFZZV
TAF
KZZV 252322Z 2600/2624 22003KT P6SM SCT070
     FM260600 00000KT 3SM BR SCT070
     FM260800 00000KT 2SM BR SCT070
     FM261300 25005KT P6SM VCSH BKN035=



000
FTUS41 KPBZ 252053 AAA
TAFPIT
TAF AMD
KPIT 252053Z 2521/2624 23005KT P6SM SCT060
     FM260900 22004KT P6SM BKN040=



000
FTUS41 KPBZ 251720
TAFLBE
TAF
KLBE 251720Z 2518/2618 20004KT P6SM SCT050
     FM260900 22002KT 4SM BR SCT040
     FM261300 24004KT P6SM BKN040=



000
FTUS41 KPBZ 251720
TAFDUJ
TAF
KDUJ 251720Z 2518/2618 22005KT P6SM SCT050
     FM260300 18004KT P6SM VCSH BKN050
     FM260900 VRB03KT 3SM BR SCT010
     FM261300 26004KT P6SM SCT040=



000
FTUS41 KPBZ 251720
TAFBVI
TAF
KBVI 251720Z 2518/2618 20004KT P6SM SCT250
     FM260900 22004KT P6SM BKN040=



000
FTUS41 KPBZ 251720
TAFZZV
TAF
KZZV 251720Z 2518/2618 21005KT P6SM SCT050
     FM260900 00000KT 2SM BR SKC
     FM261400 25004KT P6SM SCT040=



000
FTUS41 KPBZ 251720
TAFAGC
TAF
KAGC 251720Z 2518/2618 20005KT P6SM SCT250
     FM260900 22004KT P6SM BKN040=



000
FTUS41 KPBZ 251720
TAFHLG
TAF
KHLG 251720Z 2518/2618 20004KT P6SM SCT050
     FM260900 22002KT 4SM BR SCT040
     FM261400 24004KT P6SM BKN040=



000
FTUS41 KPBZ 251720
TAFMGW
TAF
KMGW 251720Z 2518/2618 18004KT P6SM SCT250
     FM260900 00000KT 3SM BR SKC
     FM261300 24004KT P6SM SCT040=



000
FTUS41 KPBZ 251720
TAFPIT
TAF
KPIT 251720Z 2518/2624 20004KT P6SM SCT250
     FM260900 22004KT P6SM BKN040=



    US Dept of Commerce
    National Oceanic and Atmospheric Administration
    National Weather Service
    1325 East West Highway
    Silver Spring, MD 20910
    Page Author: NWS Internet Services Team
Disclaimer
Information Quality
Credits
Glossary
Privacy Policy
Freedom of Information Act (FOIA)
About Us
Career Opportunities